createdAt,value
2022-08-27T00:01:23.051Z,97780.97
2022-08-27T00:04:11.576Z,97792.22
2022-08-27T00:07:02.240Z,97792.59
2022-08-27T00:09:50.712Z,97800.44
2022-08-27T00:12:39.534Z,97792.00
2022-08-27T00:15:28.574Z,97797.22
2022-08-27T00:18:19.854Z,97791.75
2022-08-27T00:21:11.165Z,97795.69
2022-08-27T00:24:01.314Z,97783.00
2022-08-27T00:26:50.622Z,97781.13
2022-08-27T00:29:39.074Z,97792.53
2022-08-27T00:32:27.666Z,97790.44
2022-08-27T00:35:17.145Z,97787.50
2022-08-27T00:38:06.205Z,97780.53
2022-08-27T00:40:56.369Z,97781.13
2022-08-27T00:43:48.403Z,97783.00
2022-08-27T00:46:39.354Z,97786.88
2022-08-27T00:49:33.732Z,97788.75
2022-08-27T00:52:27.309Z,97787.22
2022-08-27T00:55:19.160Z,97795.31
2022-08-27T00:58:14.186Z,97788.00
2022-08-27T01:01:03.255Z,97795.88
2022-08-27T01:03:57.047Z,97795.13
2022-08-27T01:06:45.378Z,97796.44
2022-08-27T01:09:33.988Z,97787.50
2022-08-27T01:12:22.838Z,97793.69
2022-08-27T01:15:20.053Z,97797.97
2022-08-27T01:18:10.037Z,97795.94
2022-08-27T01:21:04.221Z,97797.81
2022-08-27T01:23:59.500Z,97795.03
2022-08-27T01:26:49.312Z,97792.06
2022-08-27T01:29:38.350Z,97801.06
2022-08-27T01:32:29.042Z,97798.22
2022-08-27T01:35:19.111Z,97790.75
2022-08-27T01:38:07.484Z,97787.38
2022-08-27T01:41:07.132Z,97777.69
2022-08-27T01:43:56.852Z,97789.47
2022-08-27T01:46:46.341Z,97789.63
2022-08-27T01:49:34.736Z,97788.38
2022-08-27T01:52:27.372Z,97790.03
2022-08-27T01:55:18.556Z,97785.38
2022-08-27T01:58:07.139Z,97785.19
2022-08-27T02:01:00.506Z,97790.47
2022-08-27T02:03:49.019Z,97791.59
2022-08-27T02:06:37.384Z,97791.78
2022-08-27T02:09:26.974Z,97801.13
2022-08-27T02:12:15.446Z,97796.66
2022-08-27T02:15:04.658Z,97788.97
2022-08-27T02:17:54.472Z,97786.97
2022-08-27T02:20:44.308Z,97779.66
2022-08-27T02:23:32.711Z,97769.00
2022-08-27T02:26:21.087Z,97775.56
2022-08-27T02:29:10.255Z,97777.63
2022-08-27T02:31:58.601Z,97783.03
2022-08-27T02:34:48.423Z,97781.34
2022-08-27T02:37:37.615Z,97783.75
2022-08-27T02:40:26.810Z,97781.66
2022-08-27T02:43:15.729Z,97788.03
2022-08-27T02:46:04.511Z,97792.16
2022-08-27T02:48:52.862Z,97786.78
2022-08-27T02:51:43.433Z,97787.50
2022-08-27T02:54:32.866Z,97774.97
2022-08-27T02:57:21.493Z,97783.94
2022-08-27T03:00:13.747Z,97782.44
2022-08-27T03:03:03.831Z,97779.06
2022-08-27T03:05:53.014Z,97782.44
2022-08-27T03:08:52.919Z,97776.09
2022-08-27T03:11:42.145Z,97778.72
2022-08-27T03:14:31.432Z,97779.28
2022-08-27T03:17:48.673Z,97777.06
2022-08-27T03:20:40.915Z,97781.88
2022-08-27T03:23:33.150Z,97779.03
2022-08-27T03:26:22.976Z,97783.16
2022-08-27T03:29:11.355Z,97779.19
2022-08-27T03:31:59.827Z,97781.44
2022-08-27T03:34:48.241Z,97782.53
2022-08-27T03:37:36.859Z,97778.78
2022-08-27T03:40:25.215Z,97780.44
2022-08-27T03:43:16.324Z,97775.59
2022-08-27T03:46:05.193Z,97775.03
2022-08-27T03:48:54.594Z,97775.22
2022-08-27T03:51:46.486Z,97767.75
2022-08-27T03:54:36.187Z,97763.03
2022-08-27T03:57:24.575Z,97775.00
2022-08-27T04:00:15.148Z,97763.59
2022-08-27T04:03:06.093Z,97775.94
2022-08-27T04:05:55.417Z,97769.41
2022-08-27T04:08:43.788Z,97772.75
2022-08-27T04:11:32.181Z,97769.75
2022-08-27T04:14:26.960Z,97770.50
2022-08-27T04:17:17.302Z,97768.50
2022-08-27T04:20:31.607Z,97771.13
2022-08-27T04:23:16.579Z,97779.31
2022-08-27T04:26:06.401Z,97778.44
2022-08-27T04:28:55.359Z,97773.22
2022-08-27T04:31:43.759Z,97786.50
2022-08-27T04:34:33.668Z,97778.28
2022-08-27T04:37:22.088Z,97773.84
2022-08-27T04:40:12.078Z,97779.06
2022-08-27T04:43:00.494Z,97770.13
2022-08-27T04:45:50.446Z,97768.25
2022-08-27T04:48:39.130Z,97766.38
2022-08-27T04:51:30.339Z,97763.59
2022-08-27T04:54:19.388Z,97763.97
2022-08-27T04:57:16.966Z,97765.47
2022-08-27T05:00:07.209Z,97761.38
2022-08-27T05:02:55.575Z,97764.13
2022-08-27T05:05:44.037Z,97759.66
2022-08-27T05:08:34.784Z,97773.13
2022-08-27T05:11:26.674Z,97774.22
2022-08-27T05:14:16.798Z,97772.88
2022-08-27T05:17:05.214Z,97777.19
2022-08-27T05:19:53.511Z,97780.34
2022-08-27T05:22:41.878Z,97785.91
2022-08-27T05:25:31.525Z,97781.44
2022-08-27T05:28:22.153Z,97781.19
2022-08-27T05:31:17.337Z,97784.13
2022-08-27T05:34:10.088Z,97779.25
2022-08-27T05:36:59.023Z,97793.03
2022-08-27T05:39:47.388Z,97789.28
2022-08-27T05:42:37.047Z,97791.88
2022-08-27T05:45:25.351Z,97785.84
2022-08-27T05:48:14.725Z,97775.97
2022-08-27T05:51:09.811Z,97779.53
2022-08-27T05:54:00.183Z,97777.84
2022-08-27T05:56:50.378Z,97776.59
2022-08-27T05:59:57.681Z,97776.69
2022-08-27T06:02:46.896Z,97773.09
2022-08-27T06:05:35.330Z,97779.50
2022-08-27T06:08:23.796Z,97775.41
2022-08-27T06:11:12.239Z,97784.31
2022-08-27T06:14:00.735Z,97782.94
2022-08-27T06:16:50.585Z,97787.91
2022-08-27T06:19:39.018Z,97786.19
2022-08-27T06:22:27.319Z,97788.53
2022-08-27T06:25:15.593Z,97789.59
2022-08-27T06:28:04.365Z,97801.00
2022-08-27T06:30:55.903Z,97813.53
2022-08-27T06:33:47.957Z,97805.50
2022-08-27T06:36:38.332Z,97809.03
2022-08-27T06:39:26.958Z,97804.69
2022-08-27T06:42:16.061Z,97802.53
2022-08-27T06:45:06.242Z,97807.44
2022-08-27T06:47:55.980Z,97807.56
2022-08-27T06:50:45.965Z,97811.25
2022-08-27T06:53:34.337Z,97807.66
2022-08-27T06:56:22.776Z,97810.50
2022-08-27T06:59:13.077Z,97817.22
2022-08-27T07:02:01.440Z,97809.34
2022-08-27T07:04:50.613Z,97810.88
2022-08-27T07:07:46.710Z,97812.34
2022-08-27T07:10:37.530Z,97818.97
2022-08-27T07:13:25.868Z,97810.44
2022-08-27T07:16:16.329Z,97815.19
2022-08-27T07:19:06.751Z,97814.69
2022-08-27T07:21:55.123Z,97820.22
2022-08-27T07:24:44.897Z,97817.09
2022-08-27T07:27:33.307Z,97820.81
2022-08-27T07:30:22.003Z,97819.94
2022-08-27T07:33:10.368Z,97819.06
2022-08-27T07:35:58.899Z,97815.81
2022-08-27T07:38:52.786Z,97814.00
2022-08-27T07:42:15.788Z,97824.44
2022-08-27T07:45:04.145Z,97828.19
2022-08-27T07:47:54.790Z,97827.13
2022-08-27T07:50:43.793Z,97819.56
2022-08-27T07:53:33.129Z,97823.84
2022-08-27T07:56:22.442Z,97829.63
2022-08-27T07:59:12.489Z,97823.84
2022-08-27T08:02:00.895Z,97831.44
2022-08-27T08:04:49.302Z,97838.41
2022-08-27T08:07:38.591Z,97837.50
2022-08-27T08:10:27.524Z,97839.91
2022-08-27T08:13:16.603Z,97840.28
2022-08-27T08:16:06.807Z,97839.97
2022-08-27T08:18:55.578Z,97839.25
2022-08-27T08:21:44.021Z,97842.81
2022-08-27T08:24:32.374Z,97848.75
2022-08-27T08:27:21.311Z,97847.66
2022-08-27T08:30:11.120Z,97850.25
2022-08-27T08:33:00.799Z,97852.63
2022-08-27T08:35:50.096Z,97862.63
2022-08-27T08:38:39.348Z,97853.13
2022-08-27T08:41:40.624Z,97853.44
2022-08-27T08:44:34.189Z,97853.00
2022-08-27T08:47:26.381Z,97845.66
2022-08-27T08:50:22.209Z,97855.25
2022-08-27T08:53:20.099Z,97865.50
2022-08-27T08:56:12.169Z,97870.47
2022-08-27T08:59:04.684Z,97867.72
2022-08-27T09:01:53.068Z,97875.78
2022-08-27T09:04:42.418Z,97875.03
2022-08-27T09:07:37.050Z,97863.28
2022-08-27T09:10:34.618Z,97862.19
2022-08-27T09:13:25.950Z,97864.56
2022-08-27T09:16:14.262Z,97863.91
2022-08-27T09:19:05.982Z,97868.22
2022-08-27T09:22:01.252Z,97866.59
2022-08-27T09:25:06.557Z,97858.91
2022-08-27T09:27:58.609Z,97868.44
2022-08-27T09:30:46.957Z,97866.88
2022-08-27T09:33:44.335Z,97860.69
2022-08-27T09:36:54.704Z,97868.13
2022-08-27T09:39:49.951Z,97859.88
2022-08-27T09:42:44.498Z,97864.16
2022-08-27T09:45:37.307Z,97866.47
2022-08-27T09:48:28.734Z,97859.91
2022-08-27T09:51:22.016Z,97859.91
2022-08-27T09:54:13.110Z,97865.09
2022-08-27T09:57:01.761Z,97861.47
2022-08-27T09:59:55.545Z,97857.34
2022-08-27T10:02:53.021Z,97859.75
2022-08-27T10:05:51.922Z,97862.03
2022-08-27T10:08:44.938Z,97861.56
2022-08-27T10:11:38.936Z,97855.91
2022-08-27T10:14:32.536Z,97850.69
2022-08-27T10:17:29.235Z,97854.06
2022-08-27T10:20:30.102Z,97847.97
2022-08-27T10:23:29.503Z,97833.81
2022-08-27T10:26:24.585Z,97846.81
2022-08-27T10:29:22.661Z,97851.84
2022-08-27T10:32:25.732Z,97837.00
2022-08-27T10:35:20.857Z,97852.97
2022-08-27T10:38:15.736Z,97846.50
2022-08-27T10:41:13.833Z,97835.00
2022-08-27T10:44:26.283Z,97839.84
2022-08-27T10:47:30.805Z,97842.75
2022-08-27T10:50:28.592Z,97835.25
2022-08-27T10:53:27.121Z,97839.16
2022-08-27T10:56:22.939Z,97828.41
2022-08-27T10:59:25.804Z,97830.56
2022-08-27T11:02:24.274Z,97826.41
2022-08-27T11:05:18.707Z,97826.69
2022-08-27T11:08:14.543Z,97827.69
2022-08-27T11:11:34.986Z,97825.44
2022-08-27T11:14:25.420Z,97825.44
2022-08-27T11:17:19.963Z,97824.97
2022-08-27T11:20:13.288Z,97824.31
2022-08-27T11:23:06.062Z,97819.88
2022-08-27T11:25:59.101Z,97822.44
2022-08-27T11:28:55.684Z,97826.09
2022-08-27T11:31:52.139Z,97830.88
2022-08-27T11:34:47.548Z,97822.13
2022-08-27T11:37:53.071Z,97827.41
2022-08-27T11:41:00.609Z,97822.53
2022-08-27T11:43:49.252Z,97827.94
2022-08-27T11:46:45.170Z,97811.59
2022-08-27T11:49:42.355Z,97803.00
2022-08-27T11:52:36.478Z,97799.84
2022-08-27T11:55:29.293Z,97802.59
2022-08-27T11:58:29.184Z,97803.97
2022-08-27T12:01:26.982Z,97807.72
2022-08-27T12:04:24.893Z,97807.69
2022-08-27T12:07:30.833Z,97799.41
2022-08-27T12:10:36.578Z,97808.56
2022-08-27T12:13:35.176Z,97802.06
2022-08-27T12:16:32.070Z,97800.16
2022-08-27T12:19:33.730Z,97793.97
2022-08-27T12:22:58.705Z,97801.66
2022-08-27T12:25:57.862Z,97798.59
2022-08-27T12:28:47.558Z,97796.59
2022-08-27T12:31:38.262Z,97787.84
2022-08-27T12:34:28.982Z,97785.84
2022-08-27T12:37:23.514Z,97783.00
2022-08-27T12:40:22.959Z,97783.41
2022-08-27T12:43:14.409Z,97781.25
2022-08-27T12:46:08.273Z,97781.75
2022-08-27T12:48:59.364Z,97780.28
2022-08-27T12:52:14.809Z,97782.41
2022-08-27T12:55:17.460Z,97766.91
2022-08-27T12:58:15.790Z,97775.88
2022-08-27T13:01:22.441Z,97765.91
2022-08-27T13:04:21.677Z,97768.78
2022-08-27T13:07:10.833Z,97762.38
2022-08-27T13:10:10.758Z,97768.00
2022-08-27T13:13:06.376Z,97760.91
2022-08-27T13:15:58.707Z,97769.94
2022-08-27T13:18:50.598Z,97762.69
2022-08-27T13:21:38.974Z,97756.84
2022-08-27T13:24:36.023Z,97757.09
2022-08-27T13:27:26.490Z,97758.47
2022-08-27T13:30:26.876Z,97745.94
2022-08-27T13:33:27.982Z,97742.47
2022-08-27T13:36:27.486Z,97750.91
2022-08-27T13:39:19.401Z,97741.25
2022-08-27T13:42:10.297Z,97746.47
2022-08-27T13:45:03.769Z,97745.31
2022-08-27T13:47:54.801Z,97749.03
2022-08-27T13:50:50.736Z,97750.44
2022-08-27T13:54:03.564Z,97754.25
2022-08-27T13:57:08.328Z,97736.25
2022-08-27T13:59:56.807Z,97734.19
2022-08-27T14:02:56.012Z,97729.69
2022-08-27T14:05:49.188Z,97730.91
2022-08-27T14:08:37.669Z,97732.94
2022-08-27T14:11:28.216Z,97731.28
2022-08-27T14:14:19.283Z,97732.03
2022-08-27T14:17:20.558Z,97731.44
2022-08-27T14:20:10.094Z,97734.13
2022-08-27T14:22:58.628Z,97735.59
2022-08-27T14:25:48.707Z,97728.47
2022-08-27T14:28:38.399Z,97739.47
2022-08-27T14:31:26.835Z,97730.50
2022-08-27T14:34:15.599Z,97734.75
2022-08-27T14:37:04.768Z,97735.81
2022-08-27T14:39:53.317Z,97736.47
2022-08-27T14:42:41.714Z,97734.59
2022-08-27T14:45:31.406Z,97739.78
2022-08-27T14:48:28.653Z,97735.38
2022-08-27T14:51:24.113Z,97732.69
2022-08-27T14:54:13.048Z,97738.28
2022-08-27T14:57:02.357Z,97737.84
2022-08-27T14:59:50.789Z,97738.19
2022-08-27T15:02:47.944Z,97737.16
2022-08-27T15:05:36.648Z,97739.28
2022-08-27T15:08:29.203Z,97743.09
2022-08-27T15:11:24.656Z,97747.78
2022-08-27T15:14:17.432Z,97749.63
2022-08-27T15:17:33.359Z,97741.97
2022-08-27T15:20:20.169Z,97747.53
2022-08-27T15:23:10.785Z,97744.97
2022-08-27T15:25:59.128Z,97748.81
2022-08-27T15:28:47.686Z,97743.00
2022-08-27T15:31:40.178Z,97750.13
2022-08-27T15:34:28.559Z,97746.94
2022-08-27T15:37:18.267Z,97746.19
2022-08-27T15:40:07.956Z,97737.53
2022-08-27T15:42:59.338Z,97757.19
2022-08-27T15:45:47.671Z,97748.63
2022-08-27T15:48:35.969Z,97741.47
2022-08-27T15:51:29.634Z,97742.03
2022-08-27T15:54:19.351Z,97738.22
2022-08-27T15:57:09.776Z,97746.75
2022-08-27T15:59:58.153Z,97749.72
2022-08-27T16:02:47.669Z,97768.00
2022-08-27T16:05:38.210Z,97764.09
2022-08-27T16:08:26.633Z,97772.72
2022-08-27T16:11:17.675Z,97768.63
2022-08-27T16:14:07.438Z,97774.56
2022-08-27T16:16:58.300Z,97773.22
2022-08-27T16:19:46.689Z,97772.84
2022-08-27T16:22:35.921Z,97767.78
2022-08-27T16:25:24.330Z,97769.88
2022-08-27T16:28:14.080Z,97771.34
2022-08-27T16:31:02.797Z,97772.31
2022-08-27T16:33:51.182Z,97766.69
2022-08-27T16:36:39.509Z,97772.06
2022-08-27T16:39:33.042Z,97771.34
2022-08-27T16:42:23.316Z,97766.50
2022-08-27T16:45:14.437Z,97771.41
2022-08-27T16:48:20.676Z,97785.31
2022-08-27T16:51:14.402Z,97785.44
2022-08-27T16:54:04.627Z,97780.44
2022-08-27T16:56:52.871Z,97787.38
2022-08-27T16:59:41.112Z,97794.44
2022-08-27T17:02:35.042Z,97791.91
2022-08-27T17:05:33.945Z,97788.53
2022-08-27T17:08:26.720Z,97785.97
2022-08-27T17:11:17.499Z,97791.38
2022-08-27T17:14:05.818Z,97795.66
2022-08-27T17:16:55.104Z,97810.03
2022-08-27T17:19:45.426Z,97808.09
2022-08-27T17:22:33.920Z,97811.94
2022-08-27T17:25:22.166Z,97810.00
2022-08-27T17:28:18.582Z,97809.25
2022-08-27T17:31:08.318Z,97814.47
2022-08-27T17:33:59.419Z,97812.66
2022-08-27T17:36:49.592Z,97818.44
2022-08-27T17:39:38.020Z,97810.72
2022-08-27T17:42:26.749Z,97818.44
2022-08-27T17:45:17.215Z,97826.09
2022-08-27T17:48:14.049Z,97822.00
2022-08-27T17:51:06.645Z,97823.84
2022-08-27T17:54:01.252Z,97818.81
2022-08-27T17:56:49.956Z,97827.69
2022-08-27T17:59:38.584Z,97829.16
2022-08-27T18:02:33.822Z,97832.31
2022-08-27T18:05:24.985Z,97815.81
2022-08-27T18:08:13.658Z,97823.94
2022-08-27T18:11:04.528Z,97809.09
2022-08-27T18:13:55.668Z,97794.13
2022-08-27T18:16:43.958Z,97803.66
2022-08-27T18:19:32.284Z,97799.00
2022-08-27T18:22:21.314Z,97826.94
2022-08-27T18:25:10.740Z,97826.13
2022-08-27T18:28:03.402Z,97811.19
2022-08-27T18:30:52.404Z,97807.50
2022-08-27T18:33:40.901Z,97811.06
2022-08-27T18:36:29.700Z,97818.56
2022-08-27T18:39:17.982Z,97824.47
2022-08-27T18:42:06.882Z,97825.06
2022-08-27T18:44:56.707Z,97832.03
2022-08-27T18:47:45.562Z,97830.72
2022-08-27T18:50:33.989Z,97838.38
2022-08-27T18:53:22.600Z,97832.75
2022-08-27T18:56:12.300Z,97847.53
2022-08-27T18:59:06.985Z,97844.31
2022-08-27T19:01:57.375Z,97855.66
2022-08-27T19:04:45.982Z,97875.59
2022-08-27T19:07:34.384Z,97879.50
2022-08-27T19:10:22.876Z,97881.59
2022-08-27T19:13:11.216Z,97892.00
2022-08-27T19:16:02.912Z,97906.75
2022-08-27T19:18:53.096Z,97915.16
2022-08-27T19:21:41.807Z,97926.50
2022-08-27T19:24:30.124Z,97923.41
2022-08-27T19:27:27.634Z,97924.88
2022-08-27T19:30:17.297Z,97927.53
2022-08-27T19:33:05.642Z,97930.03
2022-08-27T19:35:55.411Z,97923.28
2022-08-27T19:38:44.863Z,97921.78
2022-08-27T19:41:34.531Z,97915.03
2022-08-27T19:44:22.875Z,97914.81
2022-08-27T19:47:12.720Z,97919.66
2022-08-27T19:50:01.074Z,97918.34
2022-08-27T19:52:50.682Z,97938.19
2022-08-27T19:55:39.832Z,97936.03
2022-08-27T19:58:28.196Z,97935.66
2022-08-27T20:01:16.634Z,97926.13
2022-08-27T20:04:05.974Z,97946.28
2022-08-27T20:06:54.364Z,97940.16
2022-08-27T20:09:44.076Z,97943.94
2022-08-27T20:12:32.401Z,97931.03
2022-08-27T20:15:23.484Z,97926.56
2022-08-27T20:18:14.001Z,97920.41
2022-08-27T20:21:05.799Z,97931.56
2022-08-27T20:23:54.459Z,97936.50
2022-08-27T20:26:44.151Z,97920.38
2022-08-27T20:29:33.073Z,97938.19
2022-08-27T20:32:22.780Z,97918.00
2022-08-27T20:35:12.323Z,97915.88
2022-08-27T20:38:00.696Z,97920.63
2022-08-27T20:40:49.355Z,97918.88
2022-08-27T20:43:39.062Z,97921.72
2022-08-27T20:46:30.656Z,97927.63
2022-08-27T20:49:19.010Z,97930.91
2022-08-27T20:52:10.947Z,97922.41
2022-08-27T20:54:59.964Z,97930.28
2022-08-27T20:58:06.916Z,97925.28
2022-08-27T21:00:58.034Z,97949.84
2022-08-27T21:03:46.378Z,97923.97
2022-08-27T21:06:34.680Z,97914.03
2022-08-27T21:09:22.907Z,97925.75
2022-08-27T21:12:11.206Z,97918.13
2022-08-27T21:15:00.717Z,97905.56
2022-08-27T21:17:50.483Z,97896.09
2022-08-27T21:20:38.872Z,97882.00
2022-08-27T21:23:27.924Z,97873.00
2022-08-27T21:26:16.238Z,97882.47
2022-08-27T21:29:05.929Z,97864.97
2022-08-27T21:31:54.319Z,97859.63
2022-08-27T21:34:44.307Z,97851.41
2022-08-27T21:37:32.663Z,97861.88
2022-08-27T21:40:21.210Z,97843.75
2022-08-27T21:43:09.526Z,97831.44
2022-08-27T21:45:58.899Z,97827.53
2022-08-27T21:48:47.789Z,97827.72
2022-08-27T21:51:48.620Z,97809.75
2022-08-27T21:54:42.188Z,97796.28
2022-08-27T21:57:30.482Z,97790.69
2022-08-27T22:00:38.623Z,97775.19
2022-08-27T22:03:27.296Z,97771.81
2022-08-27T22:06:15.699Z,97776.31
2022-08-27T22:09:05.444Z,97774.22
2022-08-27T22:11:53.755Z,97755.16
2022-08-27T22:14:42.077Z,97766.56
2022-08-27T22:17:30.337Z,97764.47
2022-08-27T22:20:19.017Z,97773.63
2022-08-27T22:23:08.899Z,97764.09
2022-08-27T22:25:58.859Z,97777.91
2022-08-27T22:28:47.234Z,97774.53
2022-08-27T22:31:36.186Z,97788.22
2022-08-27T22:34:24.554Z,97800.69
2022-08-27T22:37:13.001Z,97792.75
2022-08-27T22:40:01.439Z,97801.72
2022-08-27T22:42:52.211Z,97803.78
2022-08-27T22:45:40.565Z,97797.78
2022-08-27T22:48:28.961Z,97794.63
2022-08-27T22:51:17.289Z,97788.81
2022-08-27T22:54:05.875Z,97794.25
2022-08-27T22:56:54.245Z,97794.06
2022-08-27T22:59:43.967Z,97803.72
2022-08-27T23:02:32.397Z,97797.31
2022-08-27T23:05:21.014Z,97793.41
2022-08-27T23:08:11.047Z,97807.06
2022-08-27T23:10:59.448Z,97803.94
2022-08-27T23:13:47.938Z,97800.72
2022-08-27T23:16:37.791Z,97803.31
2022-08-27T23:19:26.328Z,97812.38
2022-08-27T23:22:16.291Z,97806.78
2022-08-27T23:25:23.376Z,97815.69
2022-08-27T23:28:14.838Z,97807.47
2022-08-27T23:31:03.839Z,97812.06
2022-08-27T23:33:54.580Z,97822.19
2022-08-27T23:36:42.966Z,97818.06
2022-08-27T23:39:31.284Z,97830.66
2022-08-27T23:42:20.168Z,97834.44
2022-08-27T23:45:11.826Z,97841.13
2022-08-27T23:48:00.132Z,97836.09
2022-08-27T23:50:50.814Z,97839.06
2022-08-27T23:53:39.402Z,97823.34
2022-08-27T23:56:29.985Z,97825.38
2022-08-27T23:59:18.695Z,97832.81
